Time;durP1;ratioP1;P1;durP2;ratioP2;P2;SDS_P1;SDS_P2;PMS_P1;PMS_P2;Temp;Humidity;BMP_temperature;BMP_pressure;BME280_temperature;BME280_humidity;BME280_pressure;Samples;Min_cycle;Max_cycle;Signal;HPM_P1;HPM_P2
2023/11/13 00:01:26;;;;;;;1.70;1.20;;;;;;;6.91;100.00;100933.38;108141;1267;59140;-56
2023/11/13 00:03:53;;;;;;;2.90;1.50;;;;;;;6.90;100.00;100915.20;108269;1265;70952;-58
2023/11/13 00:06:21;;;;;;;2.60;1.10;;;;;;;6.88;100.00;100901.33;108126;1266;67406;-56
2023/11/13 00:08:48;;;;;;;3.20;1.00;;;;;;;6.87;100.00;100889.73;107983;1266;72109;-56
2023/11/13 00:11:16;;;;;;;1.40;1.10;;;;;;;6.84;100.00;100879.42;105778;1263;3246927;-56
2023/11/13 00:13:44;;;;;;;2.20;1.40;;;;;;;6.82;100.00;100872.14;108466;1263;57405;-56
2023/11/13 00:16:11;;;;;;;1.70;0.90;;;;;;;6.81;100.00;100867.33;108266;1263;57677;-56
2023/11/13 00:18:39;;;;;;;2.20;0.80;;;;;;;6.81;100.00;100857.34;108298;1264;64914;-56
2023/11/13 00:21:06;;;;;;;1.20;0.90;;;;;;;6.80;100.00;100851.64;108769;1256;71423;-58
2023/11/13 00:23:37;;;;;;;4.30;1.10;;;;;;;6.79;100.00;100844.53;108752;1255;61749;-57
2023/11/13 00:26:04;;;;;;;1.10;0.80;;;;;;;6.77;100.00;100844.57;108763;1256;59043;-57
2023/11/13 00:28:32;;;;;;;1.40;0.90;;;;;;;6.75;100.00;100840.66;108710;1256;72850;-56
2023/11/13 00:30:59;;;;;;;1.10;0.80;;;;;;;6.73;100.00;100840.51;108825;1255;67293;-56
2023/11/13 00:33:28;;;;;;;1.20;0.90;;;;;;;6.73;100.00;100834.98;108714;1256;72681;-55
2023/11/13 00:35:55;;;;;;;1.20;1.00;;;;;;;6.71;100.00;100829.86;108696;1257;60393;-56
2023/11/13 00:38:23;;;;;;;1.20;1.10;;;;;;;6.68;100.00;100824.55;108669;1256;60468;-59
2023/11/13 00:40:50;;;;;;;2.90;0.90;;;;;;;6.65;100.00;100821.55;108782;1256;73074;-56
2023/11/13 00:43:19;;;;;;;2.80;0.90;;;;;;;6.64;100.00;100819.98;108669;1256;67594;-55
2023/11/13 00:45:46;;;;;;;1.50;1.00;;;;;;;6.65;100.00;100817.45;108850;1256;70695;-55
2023/11/13 00:48:14;;;;;;;1.20;0.90;;;;;;;6.65;100.00;100813.17;105885;1256;61641;-58
2023/11/13 00:50:41;;;;;;;1.50;1.00;;;;;;;6.66;100.00;100809.59;105208;1256;59822;-55
2023/11/13 00:53:09;;;;;;;1.50;0.90;;;;;;;6.66;100.00;100810.48;105095;1262;73057;-59
2023/11/13 00:55:37;;;;;;;2.30;1.10;;;;;;;6.67;100.00;100810.11;105246;1257;65843;-57
2023/11/13 00:58:04;;;;;;;2.00;1.00;;;;;;;6.68;100.00;100815.09;105214;1259;73164;-58
2023/11/13 01:00:32;;;;;;;1.30;0.90;;;;;;;6.70;100.00;100821.68;105116;1257;59715;-56
2023/11/13 01:02:59;;;;;;;2.20;1.40;;;;;;;6.70;100.00;100819.89;104969;1255;60124;-58
2023/11/13 01:05:27;;;;;;;1.50;1.20;;;;;;;6.68;100.00;100824.20;107732;1256;73627;-58
2023/11/13 01:07:54;;;;;;;1.30;1.20;;;;;;;6.64;100.00;100834.77;105248;1256;66515;-56
2023/11/13 01:10:22;;;;;;;3.00;1.50;;;;;;;6.60;100.00;100843.75;108206;1256;71496;-55
2023/11/13 01:12:50;;;;;;;1.30;1.20;;;;;;;6.57;100.00;100841.13;105139;1256;59854;-57
2023/11/13 01:15:18;;;;;;;4.40;1.70;;;;;;;6.54;100.00;100843.49;106447;1256;60220;-55
2023/11/13 01:17:45;;;;;;;2.00;1.50;;;;;;;6.53;100.00;100837.81;105287;1256;71876;-57
2023/11/13 01:20:13;;;;;;;1.90;1.10;;;;;;;6.53;100.00;100835.84;105193;1257;67466;-54
2023/11/13 01:22:41;;;;;;;2.20;1.30;;;;;;;6.56;100.00;100833.29;105074;1256;72425;-59
2023/11/13 01:25:08;;;;;;;2.00;1.50;;;;;;;6.57;100.00;100832.55;105194;1257;61778;-57
2023/11/13 01:27:36;;;;;;;3.60;1.40;;;;;;;6.59;100.00;100831.29;105142;1256;60891;-56
2023/11/13 01:30:04;;;;;;;4.60;2.50;;;;;;;6.60;100.00;100838.23;105164;1257;73464;-57
2023/11/13 01:32:31;;;;;;;2.70;1.90;;;;;;;6.60;100.00;100839.84;106420;1256;66374;-56
2023/11/13 01:34:59;;;;;;;3.60;2.60;;;;;;;6.59;100.00;100841.80;105236;1257;71417;-58
2023/11/13 01:37:26;;;;;;;3.70;2.20;;;;;;;6.58;100.00;100845.73;104953;1262;60898;-57
2023/11/13 01:39:54;;;;;;;2.60;2.10;;;;;;;6.56;100.00;100843.62;105273;1256;60125;-56
2023/11/13 01:42:21;;;;;;;3.20;2.20;;;;;;;6.55;100.00;100845.08;105283;1256;71751;-56
2023/11/13 01:44:50;;;;;;;2.20;2.00;;;;;;;6.53;100.00;100839.95;105124;1262;68104;-58
2023/11/13 01:47:18;;;;;;;3.20;2.90;;;;;;;6.51;100.00;100840.50;105357;1257;71485;-54
2023/11/13 01:49:45;;;;;;;3.10;2.70;;;;;;;6.51;100.00;100837.12;105243;1262;61729;-57
2023/11/13 01:52:13;;;;;;;6.10;2.50;;;;;;;6.52;100.00;100842.64;105314;1259;59633;-54
2023/11/13 01:54:41;;;;;;;5.00;2.60;;;;;;;6.54;100.00;100841.70;105222;1256;73528;-55
2023/11/13 01:57:09;;;;;;;2.90;2.20;;;;;;;6.57;100.00;100846.65;107292;1257;66345;-55
2023/11/13 01:59:38;;;;;;;4.70;3.20;;;;;;;6.58;100.00;100846.80;104950;1257;73185;-54
2023/11/13 02:02:05;;;;;;;6.90;3.50;;;;;;;6.59;100.00;100859.65;105059;1256;59686;-52
2023/11/13 02:04:33;;;;;;;4.70;3.20;;;;;;;6.60;100.00;100854.98;105670;1257;60075;-55
2023/11/13 02:07:01;;;;;;;5.60;3.90;;;;;;;6.60;100.00;100863.91;105325;1262;73002;-57
2023/11/13 02:09:30;;;;;;;5.40;3.40;;;;;;;6.58;100.00;100859.83;105152;1255;66943;-54
2023/11/13 02:11:58;;;;;;;5.30;4.40;;;;;;;6.58;100.00;100857.34;104956;1259;72731;-53
2023/11/13 02:14:25;;;;;;;6.60;4.50;;;;;;;6.56;100.00;100851.66;105068;1261;62378;-55
2023/11/13 02:17:03;;;;;;;6.00;4.70;;;;;;;6.55;100.00;100850.95;105007;1256;59566;-58
2023/11/13 02:19:31;;;;;;;8.40;5.80;;;;;;;6.56;100.00;100866.98;106535;1257;71631;-55
2023/11/13 02:21:59;;;;;;;4.90;3.80;;;;;;;6.54;100.00;100859.72;107070;1262;65670;-55
2023/11/13 02:24:27;;;;;;;6.70;4.40;;;;;;;6.54;100.00;100860.97;105033;1262;72672;-56
2023/11/13 02:26:54;;;;;;;6.30;5.40;;;;;;;6.55;100.00;100867.20;105227;1262;61868;-56
2023/11/13 02:29:22;;;;;;;5.60;3.90;;;;;;;6.56;100.00;100868.95;105249;1257;59763;-58
2023/11/13 02:31:50;;;;;;;4.20;3.70;;;;;;;6.56;100.00;100868.77;105061;1256;73514;-54
2023/11/13 02:34:19;;;;;;;6.70;4.90;;;;;;;6.58;100.00;100874.81;108745;1256;66577;-59
2023/11/13 02:36:48;;;;;;;8.90;4.20;;;;;;;6.58;100.00;100880.34;108688;1256;73049;-60
2023/11/13 02:39:17;;;;;;;7.00;3.90;;;;;;;6.59;100.00;100886.75;108741;1257;60160;-59
2023/11/13 02:41:44;;;;;;;6.00;4.70;;;;;;;6.59;100.00;100885.86;108863;1255;60033;-57
2023/11/13 02:44:12;;;;;;;7.20;4.40;;;;;;;6.59;100.00;100887.83;108895;1254;73104;-56
2023/11/13 02:46:40;;;;;;;6.00;4.10;;;;;;;6.59;100.00;100885.34;108793;1254;69280;-60
2023/11/13 02:49:07;;;;;;;4.90;2.90;;;;;;;6.57;100.00;100887.48;108870;1256;72746;-58
2023/11/13 02:51:35;;;;;;;7.70;3.40;;;;;;;6.55;100.00;100884.66;108960;1254;60431;-61
2023/11/13 02:54:03;;;;;;;6.40;3.80;;;;;;;6.54;100.00;100887.01;108852;1254;60591;-59
2023/11/13 02:56:30;;;;;;;4.90;3.30;;;;;;;6.54;100.00;100889.34;108625;1256;73159;-57
2023/11/13 02:58:58;;;;;;;6.30;3.50;;;;;;;6.53;100.00;100888.63;108700;1256;66317;-59
2023/11/13 03:01:25;;;;;;;6.50;4.00;;;;;;;6.53;100.00;100887.39;108638;1257;74605;-59
2023/11/13 03:03:53;;;;;;;4.50;3.70;;;;;;;6.53;100.00;100883.64;108708;1260;61759;-57
2023/11/13 03:06:22;;;;;;;4.50;3.20;;;;;;;6.53;100.00;100882.74;108710;1256;58956;-59
2023/11/13 03:08:49;;;;;;;5.60;4.00;;;;;;;6.53;100.00;100884.17;108657;1256;73142;-58
2023/11/13 03:11:17;;;;;;;8.70;4.30;;;;;;;6.53;100.00;100885.06;108605;1258;65707;-57
2023/11/13 03:13:44;;;;;;;5.70;4.60;;;;;;;6.52;100.00;100892.02;108733;1256;71410;-55
2023/11/13 03:16:11;;;;;;;7.60;5.00;;;;;;;6.51;100.00;100890.79;108800;1256;60855;-60
2023/11/13 03:18:39;;;;;;;4.90;3.60;;;;;;;6.50;100.00;100887.42;108872;1256;60625;-57
2023/11/13 03:21:07;;;;;;;9.60;4.80;;;;;;;6.47;100.00;100888.16;108530;1256;73321;-57
2023/11/13 03:23:34;;;;;;;5.90;3.80;;;;;;;6.43;100.00;100881.98;108753;1256;67203;-58
2023/11/13 03:26:03;;;;;;;9.40;5.70;;;;;;;6.39;100.00;100880.77;108587;1255;73153;-57
2023/11/13 03:28:31;;;;;;;7.50;4.50;;;;;;;6.36;100.00;100878.16;108757;1259;60430;-59
2023/11/13 03:30:58;;;;;;;9.50;4.80;;;;;;;6.33;100.00;100872.48;108873;1254;58677;-58
2023/11/13 03:33:26;;;;;;;9.50;4.80;;;;;;;6.30;100.00;100871.82;108753;1254;73099;-57
2023/11/13 03:35:53;;;;;;;6.50;4.70;;;;;;;6.27;100.00;100869.73;105243;1260;67159;-56
2023/11/13 03:38:21;;;;;;;5.80;5.30;;;;;;;6.25;100.00;100871.89;105329;1259;72835;-55
2023/11/13 03:40:48;;;;;;;6.30;4.30;;;;;;;6.25;100.00;100868.85;105218;1256;60846;-57
2023/11/13 03:43:16;;;;;;;9.50;5.20;;;;;;;6.25;100.00;100870.10;105195;1257;59664;-58
2023/11/13 03:45:43;;;;;;;9.80;4.70;;;;;;;6.25;100.00;100871.88;105263;1262;71836;-56
2023/11/13 03:48:11;;;;;;;7.20;5.10;;;;;;;6.25;100.00;100871.16;105152;1258;67725;-56
2023/11/13 03:50:38;;;;;;;6.70;5.80;;;;;;;6.24;100.00;100874.91;105128;1259;73088;-59
2023/11/13 03:53:05;;;;;;;8.10;6.40;;;;;;;6.23;100.00;100874.75;105286;1255;62199;-58
2023/11/13 03:55:33;;;;;;;10.70;5.90;;;;;;;6.20;100.00;100872.30;105254;1253;60071;-53
2023/11/13 03:58:00;;;;;;;8.10;6.20;;;;;;;6.16;100.00;100870.73;107690;1254;71848;-56
2023/11/13 04:00:28;;;;;;;7.90;5.70;;;;;;;6.11;100.00;100866.71;105377;1256;67219;-57
2023/11/13 04:02:55;;;;;;;7.60;5.20;;;;;;;6.09;100.00;100863.71;105310;1255;72754;-55
2023/11/13 04:05:23;;;;;;;6.40;5.70;;;;;;;6.07;100.00;100864.44;105253;1253;60622;-58
2023/11/13 04:07:50;;;;;;;8.70;5.90;;;;;;;6.04;100.00;100860.91;107720;1253;60508;-56
2023/11/13 04:10:18;;;;;;;8.10;5.10;;;;;;;6.02;100.00;100856.85;105336;1259;74425;-57
2023/11/13 04:12:45;;;;;;;11.30;5.90;;;;;;;6.01;100.00;100857.05;105309;1259;65495;-58
2023/11/13 04:15:13;;;;;;;8.80;6.00;;;;;;;6.01;100.00;100858.83;105444;1259;70416;-57
2023/11/13 04:17:40;;;;;;;5.40;4.80;;;;;;;6.00;100.00;100859.02;105596;1254;60543;-56
2023/11/13 04:20:12;;;;;;;6.50;5.20;;;;;;;5.99;100.00;100865.26;105530;1259;60517;-57
2023/11/13 04:22:41;;;;;;;8.90;5.80;;;;;;;5.97;100.00;100873.64;105482;1258;74015;-57
2023/11/13 04:25:09;;;;;;;8.30;4.90;;;;;;;5.95;100.00;100872.27;105852;1257;67595;-59
2023/11/13 04:27:36;;;;;;;7.90;5.30;;;;;;;5.93;100.00;100868.38;105321;1254;73050;-58
2023/11/13 04:30:07;;;;;;;6.80;6.10;;;;;;;5.89;100.00;100865.19;105294;1253;60432;-58
2023/11/13 04:32:34;;;;;;;8.10;5.80;;;;;;;5.84;100.00;100862.20;105500;1256;60396;-55
2023/11/13 04:35:02;;;;;;;9.40;6.40;;;;;;;5.79;100.00;100861.36;105767;1253;72660;-56
2023/11/13 04:37:29;;;;;;;6.30;5.10;;;;;;;5.76;100.00;100857.13;105447;1258;66199;-55
2023/11/13 04:40:00;;;;;;;7.30;6.00;;;;;;;5.72;100.00;100858.22;105351;1254;71451;-60
2023/11/13 04:42:28;;;;;;;10.20;6.00;;;;;;;5.69;100.00;100847.58;105438;1257;60546;-57
2023/11/13 04:44:55;;;;;;;7.70;5.70;;;;;;;5.67;100.00;100846.18;105293;1253;60515;-56
2023/11/13 04:47:23;;;;;;;6.60;4.80;;;;;;;5.65;100.00;100847.09;105401;1260;72856;-57
2023/11/13 04:49:50;;;;;;;5.30;4.80;;;;;;;5.64;100.00;100847.63;105360;1253;67118;-57
2023/11/13 04:52:18;;;;;;;6.80;4.50;;;;;;;5.62;100.00;100851.20;105629;1254;71209;-59
2023/11/13 04:54:45;;;;;;;6.10;5.40;;;;;;;5.62;100.00;100847.11;105254;1260;61170;-59
2023/11/13 04:57:13;;;;;;;8.80;5.70;;;;;;;5.61;100.00;100847.14;105368;1253;62654;-60
2023/11/13 04:59:40;;;;;;;10.70;5.10;;;;;;;5.61;100.00;100848.91;105452;1258;73539;-58
2023/11/13 05:02:09;;;;;;;6.70;5.60;;;;;;;5.61;100.00;100852.28;105235;1254;67361;-60
2023/11/13 05:04:36;;;;;;;9.50;5.70;;;;;;;5.61;100.00;100858.88;106369;1254;73742;-57
2023/11/13 05:07:04;;;;;;;7.80;5.90;;;;;;;5.60;100.00;100854.80;105370;1260;62039;-58
2023/11/13 05:09:32;;;;;;;5.10;3.90;;;;;;;5.62;100.00;100862.41;109153;1256;58255;-61
2023/11/13 05:12:00;;;;;;;6.60;4.40;;;;;;;5.62;100.00;100865.45;109036;1256;74318;-61
2023/11/13 05:14:27;;;;;;;6.20;5.00;;;;;;;5.63;100.00;100863.48;105656;1259;68995;-60
2023/11/13 05:16:56;;;;;;;7.20;6.00;;;;;;;5.62;100.00;100863.14;105329;1252;71407;-52
2023/11/13 05:19:24;;;;;;;5.20;4.20;;;;;;;5.63;100.00;100863.84;105991;1253;60409;-59
2023/11/13 05:21:51;;;;;;;8.40;5.80;;;;;;;5.62;100.00;100866.70;105468;1254;61877;-58
2023/11/13 05:24:19;;;;;;;8.40;4.60;;;;;;;5.60;100.00;100867.97;105376;1254;73347;-57
2023/11/13 05:26:47;;;;;;;5.00;4.40;;;;;;;5.58;100.00;100867.48;105365;1257;65034;-58
2023/11/13 05:29:15;;;;;;;6.00;4.30;;;;;;;5.57;100.00;100871.21;105424;1257;72644;-61
2023/11/13 05:31:42;;;;;;;6.30;4.80;;;;;;;5.57;100.00;100875.31;104835;1253;61352;-58
2023/11/13 05:34:10;;;;;;;6.10;4.50;;;;;;;5.58;100.00;100874.41;104898;1257;60357;-58
2023/11/13 05:36:37;;;;;;;6.70;4.00;;;;;;;5.58;100.00;100878.87;104852;1258;73190;-58
2023/11/13 05:39:07;;;;;;;5.30;4.70;;;;;;;5.58;100.00;100875.84;105060;1257;65535;-58
2023/11/13 05:41:36;;;;;;;6.20;4.20;;;;;;;5.58;100.00;100881.18;108983;1253;71440;-60
2023/11/13 05:44:04;;;;;;;5.30;4.50;;;;;;;5.59;100.00;100882.42;108797;1253;60643;-58
2023/11/13 05:46:32;;;;;;;8.20;3.90;;;;;;;5.60;100.00;100884.54;109030;1257;58801;-57
2023/11/13 05:49:00;;;;;;;7.40;3.80;;;;;;;5.61;100.00;100891.66;109042;1253;72851;-58
2023/11/13 05:51:27;;;;;;;4.40;4.00;;;;;;;5.64;100.00;100890.72;109162;1253;66706;-59
2023/11/13 05:53:55;;;;;;;4.40;3.80;;;;;;;5.67;100.00;100892.30;109112;1254;71999;-59
2023/11/13 05:56:22;;;;;;;4.60;3.70;;;;;;;5.70;100.00;100899.92;109067;1252;59399;-60
2023/11/13 05:58:50;;;;;;;4.90;4.50;;;;;;;5.71;100.00;100897.41;109143;1253;59436;-59
2023/11/13 06:01:18;;;;;;;5.20;4.70;;;;;;;5.73;100.00;100898.64;109087;1253;72924;-61
2023/11/13 06:03:46;;;;;;;5.60;4.40;;;;;;;5.74;100.00;100901.31;106589;1257;67036;-57
2023/11/13 06:06:14;;;;;;;9.60;4.80;;;;;;;5.73;100.00;100903.10;109037;1253;72759;-60
2023/11/13 06:08:45;;;;;;;3.80;3.50;;;;;;;5.73;100.00;100903.98;109037;1259;60989;-59
2023/11/13 06:11:13;;;;;;;5.00;3.30;;;;;;;5.73;100.00;100905.23;108977;1253;58754;-61
2023/11/13 06:13:41;;;;;;;5.50;3.20;;;;;;;5.72;100.00;100906.30;109118;1257;73960;-60
2023/11/13 06:16:09;;;;;;;3.50;3.20;;;;;;;5.74;100.00;100912.00;109141;1253;66894;-60
2023/11/13 06:18:47;;;;;;;3.10;2.70;;;;;;;5.76;100.00;100915.20;109123;1254;71489;-59
2023/11/13 06:21:14;;;;;;;3.80;3.10;;;;;;;5.78;100.00;100926.92;109113;1256;60460;-59
2023/11/13 06:23:42;;;;;;;3.40;3.10;;;;;;;5.81;100.00;100927.59;108974;1256;58567;-60
2023/11/13 06:26:12;;;;;;;3.40;3.10;;;;;;;5.84;100.00;100928.64;109152;1253;72627;-60
2023/11/13 06:28:40;;;;;;;5.40;3.70;;;;;;;5.85;100.00;100937.00;109102;1254;66045;-61
2023/11/13 06:31:08;;;;;;;2.80;2.60;;;;;;;5.87;100.00;100935.20;109199;1253;71507;-59
2023/11/13 06:33:36;;;;;;;4.00;3.60;;;;;;;5.91;100.00;100941.06;108918;1258;60570;-59
2023/11/13 06:36:10;;;;;;;5.20;3.40;;;;;;;5.93;100.00;100947.64;109104;1254;60722;-59
2023/11/13 06:38:38;;;;;;;3.40;3.10;;;;;;;5.94;100.00;100950.31;109079;1257;74925;-55
2023/11/13 06:41:05;;;;;;;4.10;3.50;;;;;;;5.95;100.00;100946.55;109093;1254;64912;-58
2023/11/13 06:43:33;;;;;;;4.70;3.70;;;;;;;5.96;100.00;100943.33;109122;1256;72740;-59
2023/11/13 06:46:01;;;;;;;9.90;3.50;;;;;;;5.97;100.00;100942.41;107176;1267;61367;-55
2023/11/13 06:48:29;;;;;;;3.70;3.40;;;;;;;5.99;100.00;100944.19;109006;1253;60001;-59
2023/11/13 06:50:57;;;;;;;3.10;2.70;;;;;;;6.04;100.00;100950.00;109090;1254;71659;-60
2023/11/13 06:53:25;;;;;;;4.50;2.70;;;;;;;6.10;100.00;100954.60;105411;1257;67108;-55
2023/11/13 06:55:53;;;;;;;3.70;3.20;;;;;;;6.18;100.00;100965.20;108274;1256;72754;-56
2023/11/13 06:58:22;;;;;;;3.50;3.20;;;;;;;6.27;100.00;100973.45;105438;1257;61853;-59
2023/11/13 07:00:50;;;;;;;2.80;2.60;;;;;;;6.38;100.00;100985.98;106113;1254;60450;-54
2023/11/13 07:03:18;;;;;;;3.60;2.80;;;;;;;6.52;100.00;101001.69;105291;1255;73832;-56
2023/11/13 07:05:47;;;;;;;5.80;2.80;;;;;;;6.63;100.00;101014.04;106026;1257;67555;-57
2023/11/13 07:08:14;;;;;;;2.80;2.60;;;;;;;6.71;100.00;101028.40;105037;1264;75394;-56
2023/11/13 07:10:43;;;;;;;3.60;3.00;;;;;;;6.77;100.00;101039.21;105289;1259;60540;-56
2023/11/13 07:13:11;;;;;;;3.80;3.00;;;;;;;6.83;100.00;101047.87;106580;1256;60405;-57
2023/11/13 07:15:40;;;;;;;2.80;2.50;;;;;;;6.91;100.00;101055.46;106529;1257;72954;-60
2023/11/13 07:18:08;;;;;;;7.70;2.70;;;;;;;6.99;100.00;101062.84;107827;1256;67103;-56
2023/11/13 07:20:36;;;;;;;3.30;2.90;;;;;;;7.10;100.00;101079.11;105420;1259;72003;-59
2023/11/13 07:23:03;;;;;;;2.50;2.30;;;;;;;7.22;100.00;101094.84;105431;1255;60623;-60
2023/11/13 07:25:30;;;;;;;2.70;2.50;;;;;;;7.32;100.00;101099.70;105307;1257;60470;-58
2023/11/13 07:27:58;;;;;;;4.10;2.40;;;;;;;7.38;100.00;101114.80;105478;1257;72964;-57
2023/11/13 07:30:27;;;;;;;2.40;2.00;;;;;;;7.44;100.00;101124.01;108398;1256;65984;-56
2023/11/13 07:32:55;;;;;;;2.70;2.50;;;;;;;7.46;100.00;101132.02;105432;1256;70619;-54
2023/11/13 07:35:22;;;;;;;3.30;2.80;;;;;;;7.50;100.00;101144.09;105507;1256;60394;-57
2023/11/13 07:37:50;;;;;;;4.00;3.10;;;;;;;7.55;100.00;101154.23;105376;1261;60383;-56
2023/11/13 07:40:18;;;;;;;3.10;2.10;;;;;;;7.57;100.00;101157.23;105301;1263;73925;-57
2023/11/13 07:42:48;;;;;;;6.00;3.70;;;;;;;7.59;100.00;101165.75;109107;1254;66614;-61
2023/11/13 07:45:16;;;;;;;4.90;3.60;;;;;;;7.63;100.00;101174.48;107317;1257;72722;-59
2023/11/13 07:47:43;;;;;;;3.90;3.10;;;;;;;7.67;100.00;101182.99;105394;1257;60604;-59
2023/11/13 07:50:11;;;;;;;5.20;4.00;;;;;;;7.69;100.00;101189.04;108615;1254;58983;-55
2023/11/13 07:52:43;;;;;;;3.10;2.90;;;;;;;7.71;100.00;101197.06;106863;1255;73886;-56
2023/11/13 07:55:12;;;;;;;5.20;3.90;;;;;;;7.73;100.00;101202.93;105267;1255;68796;-55
2023/11/13 07:57:40;;;;;;;9.40;4.40;;;;;;;7.75;100.00;101203.06;106587;1257;72882;-56
2023/11/13 08:00:14;;;;;;;4.60;4.20;;;;;;;7.76;100.00;101211.09;106587;1257;60292;-59
2023/11/13 08:02:42;;;;;;;3.70;3.00;;;;;;;7.76;100.00;101215.73;106184;1259;60332;-57
2023/11/13 08:05:11;;;;;;;3.60;3.30;;;;;;;7.73;100.00;101220.08;105369;1254;72805;-57
2023/11/13 08:07:40;;;;;;;4.10;3.40;;;;;;;7.71;100.00;101219.58;104883;1253;66871;-56
2023/11/13 08:10:12;;;;;;;3.90;3.50;;;;;;;7.68;100.00;101224.06;104945;1255;73163;-58
2023/11/13 08:12:42;;;;;;;3.50;3.00;;;;;;;7.68;100.00;101226.22;109162;1256;62198;-59
2023/11/13 08:15:12;;;;;;;4.70;3.00;;;;;;;7.68;100.00;101222.64;106953;1256;60672;-56
2023/11/13 08:17:43;;;;;;;3.10;2.70;;;;;;;7.69;100.00;101222.10;108868;1254;72923;-54
2023/11/13 08:20:13;;;;;;;3.10;2.50;;;;;;;7.71;100.00;101225.65;105787;1257;65820;-59
2023/11/13 08:22:41;;;;;;;3.00;2.80;;;;;;;7.74;100.00;101226.51;107584;1254;73156;-55
2023/11/13 08:25:12;;;;;;;5.00;3.00;;;;;;;7.78;100.00;101226.44;104899;1260;60526;-56
2023/11/13 08:27:43;;;;;;;3.80;3.20;;;;;;;7.81;100.00;101236.95;106294;1254;60710;-59
2023/11/13 08:30:14;;;;;;;6.50;3.00;;;;;;;7.83;100.00;101247.98;104922;1257;74188;-59
2023/11/13 08:32:42;;;;;;;3.20;2.90;;;;;;;7.86;100.00;101258.14;107611;1257;65805;-57
2023/11/13 08:35:13;;;;;;;5.50;3.80;;;;;;;7.92;100.00;101261.80;105168;1254;75178;-59
2023/11/13 08:37:45;;;;;;;5.30;2.80;;;;;;;7.99;100.00;101271.90;108992;1254;60844;-57
2023/11/13 08:40:14;;;;;;;3.30;3.10;;;;;;;8.08;100.00;101274.30;108957;1258;59404;-58
2023/11/13 08:42:41;;;;;;;2.60;2.40;;;;;;;8.19;100.00;101281.63;106463;1254;73910;-58
2023/11/13 08:45:12;;;;;;;4.30;2.80;;;;;;;8.31;100.00;101288.27;105359;1257;65615;-56
2023/11/13 08:47:40;;;;;;;4.10;3.30;;;;;;;8.43;100.00;101310.30;107138;1256;72638;-55
2023/11/13 08:50:11;;;;;;;2.60;2.40;;;;;;;8.50;100.00;101313.41;109062;1254;59469;-57
2023/11/13 08:52:40;;;;;;;2.90;2.60;;;;;;;8.56;100.00;101328.89;109069;1254;58908;-57
2023/11/13 08:55:17;;;;;;;3.00;2.70;;;;;;;8.60;100.00;101333.83;109051;1252;74021;-59
2023/11/13 08:57:46;;;;;;;2.70;2.40;;;;;;;8.62;100.00;101353.84;109068;1254;66591;-58
2023/11/13 09:00:22;;;;;;;4.60;3.60;;;;;;;8.60;100.00;101354.58;109175;1254;72729;-58
2023/11/13 09:02:53;;;;;;;3.20;2.80;;;;;;;8.58;100.00;101358.94;109116;1253;61798;-58
2023/11/13 09:05:26;;;;;;;4.90;3.40;;;;;;;8.57;100.00;101366.81;109069;1253;58947;-60
2023/11/13 09:07:57;;;;;;;3.70;3.40;;;;;;;8.55;100.00;101370.23;109025;1253;72641;-58
2023/11/13 09:10:28;;;;;;;3.70;3.40;;;;;;;8.53;100.00;101366.49;109157;1253;65657;-58
2023/11/13 09:13:00;;;;;;;2.90;2.70;;;;;;;8.53;100.00;101370.79;109118;1253;72743;-59
2023/11/13 09:15:29;;;;;;;3.40;3.10;;;;;;;8.54;100.00;101372.57;109124;1254;62246;-56
2023/11/13 09:18:01;;;;;;;4.50;3.70;;;;;;;8.58;100.00;101369.30;109153;1254;60077;-59
2023/11/13 09:20:29;;;;;;;3.90;3.10;;;;;;;8.65;100.00;101384.95;108964;1254;74070;-58
2023/11/13 09:22:58;;;;;;;3.00;2.80;;;;;;;8.67;100.00;101385.80;107420;1254;67056;-57
2023/11/13 09:25:31;;;;;;;3.30;3.10;;;;;;;8.67;100.00;101387.98;109072;1254;72828;-60
2023/11/13 09:28:00;;;;;;;2.50;2.30;;;;;;;8.67;100.00;101384.02;109065;1254;59502;-60
2023/11/13 09:30:28;;;;;;;2.30;2.10;;;;;;;8.70;100.00;101387.02;108959;1254;60160;-59
2023/11/13 09:32:55;;;;;;;2.60;1.80;;;;;;;8.74;100.00;101393.06;109158;1251;74846;-60
2023/11/13 09:35:24;;;;;;;1.60;1.50;;;;;;;8.81;100.00;101400.10;109020;1253;67190;-59
2023/11/13 09:37:58;;;;;;;2.00;1.60;;;;;;;8.91;100.00;101407.28;109010;1254;73591;-60
2023/11/13 09:40:34;;;;;;;2.00;1.60;;;;;;;8.99;100.00;101424.17;109026;1253;60108;-59
2023/11/13 09:43:34;;;;;;;2.70;1.40;;;;;;;9.06;100.00;101431.21;108998;1255;60079;-60
2023/11/13 09:46:06;;;;;;;3.30;2.10;;;;;;;9.18;100.00;101470.61;108965;1253;74012;-57
2023/11/13 09:48:50;;;;;;;1.60;1.30;;;;;;;9.27;100.00;101453.81;108036;1254;65516;-56
2023/11/13 09:51:17;;;;;;;1.50;1.20;;;;;;;9.34;100.00;101472.70;105416;1257;71448;-55
2023/11/13 09:53:58;;;;;;;2.50;2.20;;;;;;;9.36;100.00;101477.67;105362;1260;60501;-55
2023/11/13 09:56:27;;;;;;;1.40;1.00;;;;;;;9.36;100.00;101472.48;108852;1254;58847;-58
2023/11/13 09:58:56;;;;;;;2.00;1.50;;;;;;;9.35;100.00;101476.09;105757;1260;73989;-56
2023/11/13 10:01:23;;;;;;;1.70;1.40;;;;;;;9.34;100.00;101474.33;105235;1254;66131;-55
2023/11/13 10:03:51;;;;;;;2.00;1.60;;;;;;;9.33;100.00;101477.74;105814;1258;73083;-56
2023/11/13 10:06:19;;;;;;;4.50;1.50;;;;;;;9.31;100.00;101478.66;106053;1254;60574;-56
2023/11/13 10:08:49;;;;;;;1.40;1.30;;;;;;;9.28;100.00;101481.04;105318;1256;60582;-56
2023/11/13 10:11:18;;;;;;;1.50;1.40;;;;;;;9.24;100.00;101492.56;105449;1255;72612;-55
2023/11/13 10:13:45;;;;;;;3.10;1.60;;;;;;;9.20;100.00;101494.05;105541;1255;65866;-58
2023/11/13 10:16:21;;;;;;;1.50;1.40;;;;;;;9.15;100.00;101493.24;105032;1257;71686;-58
2023/11/13 10:18:52;;;;;;;3.50;1.40;;;;;;;9.06;100.00;101495.88;105332;1255;62606;-56
2023/11/13 10:21:33;;;;;;;1.90;1.10;;;;;;;9.00;100.00;101485.94;105135;1254;62224;-61
2023/11/13 10:24:21;;;;;;;3.60;1.30;;;;;;;8.98;100.00;101495.10;106299;1257;72569;-59
2023/11/13 10:27:06;;;;;;;2.80;1.30;;;;;;;8.97;100.00;101525.55;106199;1254;65776;-59
2023/11/13 10:29:36;;;;;;;1.20;1.00;;;;;;;8.98;100.00;101498.50;105430;1255;72860;-57
2023/11/13 10:32:04;;;;;;;1.30;1.10;;;;;;;8.99;100.00;101491.15;105487;1254;61079;-55
2023/11/13 10:34:43;;;;;;;3.30;1.50;;;;;;;9.00;100.00;101491.31;105350;1254;62274;-55
2023/11/13 10:37:12;;;;;;;1.60;1.40;;;;;;;9.02;100.00;101510.79;108642;1254;74364;-59
2023/11/13 10:39:42;;;;;;;2.40;1.40;;;;;;;9.01;100.00;101500.42;106262;1253;66244;-58
2023/11/13 10:42:22;;;;;;;2.90;1.40;;;;;;;8.99;100.00;101504.58;106396;1254;72923;-58
2023/11/13 10:44:56;;;;;;;1.50;1.10;;;;;;;8.95;100.00;101505.52;105519;1257;60641;-56
2023/11/13 10:47:25;;;;;;;1.60;1.30;;;;;;;8.91;100.00;101500.77;105705;1254;60437;-57
2023/11/13 10:49:54;;;;;;;1.40;1.00;;;;;;;8.87;100.00;101477.52;105866;1254;75060;-56
2023/11/13 10:52:27;;;;;;;1.30;1.10;;;;;;;8.84;100.00;101469.16;106017;1253;67052;-56
2023/11/13 10:55:00;;;;;;;2.90;1.40;;;;;;;8.82;100.00;101473.30;105440;1254;72883;-59
2023/11/13 10:57:28;;;;;;;3.10;1.20;;;;;;;8.78;100.00;101471.38;105739;1254;61737;-59
2023/11/13 10:59:56;;;;;;;1.30;1.20;;;;;;;8.75;100.00;101459.08;105625;1257;60388;-55
2023/11/13 11:02:26;;;;;;;1.30;1.10;;;;;;;8.76;100.00;101463.35;105178;1254;76305;-58
2023/11/13 11:04:56;;;;;;;1.20;1.10;;;;;;;8.78;100.00;101462.60;105850;1257;66027;-58
2023/11/13 11:07:26;;;;;;;1.60;1.10;;;;;;;8.78;100.00;101462.95;105399;1253;72723;-56
2023/11/13 11:10:00;;;;;;;1.30;1.20;;;;;;;8.77;100.00;101461.01;105241;1253;60543;-60
2023/11/13 11:12:32;;;;;;;2.10;1.00;;;;;;;8.76;100.00;101461.04;108836;1253;60191;-57
2023/11/13 11:15:26;;;;;;;1.50;1.10;;;;;;;8.76;100.00;101464.62;105242;1252;72720;-54
2023/11/13 11:17:56;;;;;;;1.30;1.20;;;;;;;8.74;100.00;101484.34;106355;1257;68249;-60
2023/11/13 11:21:01;;;;;;;6.20;1.90;;;;;;;8.72;100.00;101455.89;105877;1254;72791;-61
2023/11/13 11:23:31;;;;;;;2.00;1.40;;;;;;;8.69;100.00;101480.27;105080;1260;63064;-55
2023/11/13 11:26:00;;;;;;;2.70;1.30;;;;;;;8.68;100.00;101439.48;105823;1253;60365;-60